Terminal Aerodrome Forecast
Issued by NWS

Home | Current Version | Previous Version | Graphics & Text | Print | Product List | Glossary On
Versions: 1 2 3 4 5 6 7 8 9 10 11 12 13 14
000
FTUS43 KOAX 111700
TAFCDR
TAF
KCDR 111734Z 1118/1218 03004KT P6SM BKN120
     FM112000 05008KT P6SM VCTS SCT060CB BKN150
     FM112200 08013KT 3SM TSRAGS BKN050CB OVC100
     FM120300 02008KT P6SM -SHRA VCTS SCT050CB BKN100
     FM120900 01005KT P6SM BKN030
     FM121400 02007KT P6SM VCSH BKN035=

USA.gov is the U.S. government's official web portal to all federal, state and local government web resources and services.